Time;durP1;ratioP1;P1;durP2;ratioP2;P2;SDS_P1;SDS_P2;PMS_P1;PMS_P2;Temp;Humidity;BMP_temperature;BMP_pressure;BME280_temperature;BME280_humidity;BME280_pressure;Samples;Min_cycle;Max_cycle;Signal;HPM_P1;HPM_P2
2021/03/05 00:00:50;;;;;;;7.00;5.27;;;7.20;99.90;;;;;;4953626;28;20190;-92
2021/03/05 00:03:16;;;;;;;6.00;5.20;;;7.20;99.90;;;;;;4956141;28;20526;-92
2021/03/05 00:05:45;;;;;;;5.90;5.30;;;7.20;99.90;;;;;;4959300;28;20943;-93
2021/03/05 00:08:12;;;;;;;6.80;6.10;;;7.20;99.90;;;;;;4954254;28;20190;-92
2021/03/05 00:10:41;;;;;;;5.70;5.07;;;7.10;99.90;;;;;;4957163;28;20486;-93
2021/03/05 00:13:10;;;;;;;6.60;5.90;;;7.00;99.90;;;;;;4971480;28;21039;-94
2021/03/05 00:15:44;;;;;;;9.77;5.57;;;7.10;99.90;;;;;;4971756;28;20449;-92
2021/03/05 00:18:15;;;;;;;6.77;5.40;;;7.20;99.90;;;;;;4956660;28;20481;-93
2021/03/05 00:20:44;;;;;;;7.10;5.37;;;7.20;99.90;;;;;;4958701;28;20542;-93
2021/03/05 00:23:10;;;;;;;6.50;5.30;;;7.20;99.90;;;;;;4957464;28;20448;-91
2021/03/05 00:25:36;;;;;;;8.53;6.93;;;7.20;99.90;;;;;;4958009;28;20803;-92
2021/03/05 00:28:02;;;;;;;8.13;5.50;;;7.20;99.90;;;;;;4947440;28;20458;-91
2021/03/05 00:30:29;;;;;;;8.50;6.20;;;7.20;99.90;;;;;;4956897;28;20562;-93
2021/03/05 00:32:55;;;;;;;6.17;5.40;;;7.30;99.90;;;;;;4958534;28;20468;-93
2021/03/05 00:35:23;;;;;;;7.00;6.33;;;7.20;99.90;;;;;;4955930;28;20454;-94
2021/03/05 00:37:51;;;;;;;6.50;5.90;;;7.20;99.90;;;;;;4958939;28;20463;-93
2021/03/05 00:40:18;;;;;;;7.33;6.47;;;7.30;99.90;;;;;;4956594;28;20879;-91
2021/03/05 00:42:46;;;;;;;10.00;7.63;;;7.40;99.90;;;;;;4957466;28;21014;-92
2021/03/05 00:45:14;;;;;;;11.07;8.70;;;7.40;99.90;;;;;;4958361;28;22175;-91
2021/03/05 00:47:40;;;;;;;14.03;11.13;;;7.20;99.90;;;;;;4957066;28;20456;-92
2021/03/05 00:50:07;;;;;;;13.20;10.87;;;7.20;99.90;;;;;;4954974;28;21041;-91
2021/03/05 00:52:33;;;;;;;15.60;11.63;;;7.10;99.90;;;;;;4973038;28;20191;-92
2021/03/05 00:54:59;;;;;;;15.87;12.63;;;6.90;99.90;;;;;;4959469;28;20445;-92
2021/03/05 00:57:24;;;;;;;16.70;12.50;;;6.80;99.90;;;;;;4956869;28;21043;-93
2021/03/05 00:59:52;;;;;;;21.30;15.77;;;6.70;99.90;;;;;;4959421;28;20225;-91
2021/03/05 01:02:18;;;;;;;21.57;15.10;;;6.60;99.90;;;;;;4959551;28;20190;-92
2021/03/05 01:04:44;;;;;;;20.40;15.33;;;6.50;99.90;;;;;;4955405;28;20461;-93
2021/03/05 01:07:10;;;;;;;20.43;15.10;;;6.60;99.90;;;;;;4960451;28;20652;-93
2021/03/05 01:09:35;;;;;;;20.97;15.53;;;6.50;99.90;;;;;;4954115;28;20635;-92
2021/03/05 01:12:04;;;;;;;17.90;13.53;;;6.30;99.90;;;;;;4955328;28;20551;-91
2021/03/05 01:14:29;;;;;;;21.33;14.77;;;6.20;99.90;;;;;;4956110;28;20190;-95
2021/03/05 01:16:55;;;;;;;19.40;14.57;;;6.10;99.90;;;;;;4958715;28;20511;-91
2021/03/05 01:19:26;;;;;;;19.27;13.13;;;6.10;99.90;;;;;;4959422;28;20320;-93
2021/03/05 01:21:54;;;;;;;22.30;14.73;;;6.00;99.90;;;;;;4972857;28;20201;-92
2021/03/05 01:24:20;;;;;;;20.07;14.63;;;5.90;99.90;;;;;;4954704;28;20479;-92
2021/03/05 01:26:46;;;;;;;19.93;14.30;;;5.90;99.90;;;;;;4972836;28;20437;-93
2021/03/05 01:29:12;;;;;;;22.50;15.13;;;5.90;99.90;;;;;;4955333;28;20472;-92
2021/03/05 01:31:37;;;;;;;24.10;14.90;;;5.80;99.90;;;;;;4958155;28;20196;-91
2021/03/05 01:34:06;;;;;;;21.50;16.73;;;5.80;99.90;;;;;;4957717;28;20734;-94
2021/03/05 01:36:33;;;;;;;23.13;14.37;;;5.70;99.90;;;;;;4953250;28;20635;-92
2021/03/05 01:38:58;;;;;;;24.60;16.60;;;5.60;99.90;;;;;;4952344;28;20465;-92
2021/03/05 01:41:27;;;;;;;22.90;15.80;;;5.60;99.90;;;;;;4951916;28;20498;-91
2021/03/05 01:43:57;;;;;;;27.20;16.60;;;5.50;99.90;;;;;;4957423;28;20304;-94
2021/03/05 01:46:23;;;;;;;24.33;15.37;;;5.50;99.90;;;;;;4958454;28;20456;-93
2021/03/05 01:48:50;;;;;;;28.00;17.27;;;5.40;99.90;;;;;;4957444;28;20479;-93
2021/03/05 01:51:18;;;;;;;30.60;19.40;;;5.30;99.90;;;;;;4954396;28;20539;-95
2021/03/05 01:53:45;;;;;;;25.30;17.40;;;5.20;99.90;;;;;;4959609;28;20508;-92
2021/03/05 01:56:31;;;;;;;29.70;18.87;;;5.20;99.90;;;;;;4955339;28;20471;-93
2021/03/05 01:58:58;;;;;;;29.10;18.93;;;5.30;99.90;;;;;;4957755;28;20456;-94
2021/03/05 02:01:25;;;;;;;27.70;17.43;;;5.30;99.90;;;;;;4958534;28;20477;-93
2021/03/05 02:03:52;;;;;;;31.50;18.10;;;5.10;99.90;;;;;;4958716;28;20475;-94
2021/03/05 02:06:22;;;;;;;28.43;17.00;;;5.10;99.90;;;;;;4954794;28;20864;-93
2021/03/05 02:08:49;;;;;;;31.70;18.50;;;5.00;99.90;;;;;;4960417;28;20475;-93
2021/03/05 02:11:22;;;;;;;31.30;18.07;;;4.80;99.90;;;;;;4958860;28;20458;-92
2021/03/05 02:13:54;;;;;;;26.17;17.10;;;4.80;99.90;;;;;;4954664;28;20467;-93
2021/03/05 02:16:39;;;;;;;27.40;17.47;;;4.70;99.90;;;;;;4961396;28;20954;-93
2021/03/05 02:19:11;;;;;;;29.73;17.93;;;4.70;99.90;;;;;;4977754;28;20981;-96
2021/03/05 02:22:05;;;;;;;27.80;16.97;;;4.80;99.90;;;;;;4955309;28;20502;-92
2021/03/05 02:25:03;;;;;;;30.90;17.40;;;4.80;99.90;;;;;;4953085;28;20463;-92
2021/03/05 02:27:50;;;;;;;27.73;16.47;;;4.70;99.90;;;;;;4903641;28;20536;-91
2021/03/05 02:30:28;;;;;;;22.10;14.23;;;4.80;99.90;;;;;;4971777;28;20478;-90
2021/03/05 02:32:58;;;;;;;26.60;16.13;;;4.70;99.90;;;;;;4958639;28;20444;-91
2021/03/05 02:35:30;;;;;;;25.13;15.80;;;4.60;99.90;;;;;;4975784;28;20475;-92
2021/03/05 02:37:59;;;;;;;33.73;18.20;;;4.60;99.90;;;;;;4954313;28;20507;-92
2021/03/05 02:40:37;;;;;;;27.40;16.30;;;4.60;99.90;;;;;;4955104;28;20476;-92
2021/03/05 02:43:05;;;;;;;28.83;19.13;;;4.50;99.90;;;;;;4956460;28;20448;-92
2021/03/05 02:45:37;;;;;;;32.63;18.87;;;4.50;99.90;;;;;;4954120;28;20448;-92
2021/03/05 02:48:11;;;;;;;27.40;16.23;;;4.50;99.90;;;;;;4957774;28;20850;-91
2021/03/05 02:50:41;;;;;;;29.83;17.47;;;4.50;99.90;;;;;;4955347;28;20903;-91
2021/03/05 02:53:11;;;;;;;32.50;17.07;;;4.50;99.90;;;;;;4953769;28;20444;-92
2021/03/05 02:55:42;;;;;;;33.00;17.70;;;4.50;99.90;;;;;;4952817;28;20476;-92
2021/03/05 02:58:14;;;;;;;33.33;19.30;;;4.40;99.90;;;;;;4954936;28;20451;-91
2021/03/05 03:00:42;;;;;;;36.30;20.70;;;4.50;99.90;;;;;;4957298;28;20914;-90
2021/03/05 03:03:11;;;;;;;34.33;19.03;;;4.50;99.90;;;;;;4955342;28;20453;-91
2021/03/05 03:05:39;;;;;;;32.97;19.73;;;4.50;99.90;;;;;;4958127;28;20464;-90
2021/03/05 03:08:07;;;;;;;30.70;16.90;;;4.50;99.90;;;;;;4961710;28;20456;-90
2021/03/05 03:10:33;;;;;;;30.43;17.80;;;4.50;99.90;;;;;;4957182;28;20887;-90
2021/03/05 03:13:01;;;;;;;33.50;18.47;;;4.50;99.90;;;;;;4957619;28;20430;-92
2021/03/05 03:15:30;;;;;;;29.67;16.80;;;4.50;99.90;;;;;;4959131;28;20460;-90
2021/03/05 03:17:58;;;;;;;26.87;16.00;;;4.50;99.90;;;;;;4971195;28;20842;-90
2021/03/05 03:20:27;;;;;;;30.30;17.13;;;4.40;99.90;;;;;;4957274;28;20496;-90
2021/03/05 03:22:53;;;;;;;32.17;17.93;;;4.40;99.90;;;;;;4973671;28;20455;-89
2021/03/05 03:25:22;;;;;;;32.60;17.97;;;4.40;99.90;;;;;;4973687;28;20862;-89
2021/03/05 03:27:48;;;;;;;28.53;16.60;;;4.40;99.90;;;;;;4957205;28;20607;-90
2021/03/05 03:30:15;;;;;;;30.47;17.03;;;4.30;99.90;;;;;;4956614;28;20448;-91
2021/03/05 03:32:42;;;;;;;25.97;15.53;;;4.40;99.90;;;;;;4975182;28;20514;-91
2021/03/05 03:35:10;;;;;;;26.87;17.00;;;4.30;99.90;;;;;;4955746;28;20455;-91
2021/03/05 03:37:36;;;;;;;24.13;16.00;;;4.20;99.90;;;;;;4956320;28;20452;-92
2021/03/05 03:40:22;;;;;;;26.97;15.10;;;4.30;99.90;;;;;;4957878;28;20476;-92
2021/03/05 03:42:49;;;;;;;28.50;15.83;;;4.30;99.90;;;;;;4973714;28;20704;-92
2021/03/05 03:45:19;;;;;;;30.13;16.57;;;4.30;99.90;;;;;;4958936;28;20460;-92
2021/03/05 03:47:45;;;;;;;25.60;15.97;;;4.30;99.90;;;;;;4962801;28;20460;-91
2021/03/05 03:50:28;;;;;;;28.20;17.23;;;4.30;99.90;;;;;;4961316;28;20448;-91
2021/03/05 03:52:56;;;;;;;27.87;15.73;;;4.30;99.90;;;;;;4957515;28;20445;-91
2021/03/05 03:55:22;;;;;;;28.03;17.37;;;4.20;99.90;;;;;;4958830;28;20451;-90
2021/03/05 03:57:51;;;;;;;28.50;16.60;;;4.20;99.90;;;;;;4958380;28;20459;-91
2021/03/05 04:00:18;;;;;;;25.70;15.53;;;4.20;99.90;;;;;;4954683;28;21275;-91
2021/03/05 04:02:50;;;;;;;31.70;17.53;;;4.30;99.90;;;;;;4955153;28;20472;-90
2021/03/05 04:05:20;;;;;;;24.40;16.20;;;4.20;99.90;;;;;;4957663;28;20523;-91
2021/03/05 04:07:48;;;;;;;24.33;15.20;;;4.30;99.90;;;;;;4963025;28;22333;-92
2021/03/05 04:10:15;;;;;;;22.00;14.30;;;4.30;99.90;;;;;;4957470;28;20473;-92
2021/03/05 04:12:43;;;;;;;25.50;15.30;;;4.30;99.90;;;;;;4957401;28;20508;-93
2021/03/05 04:15:10;;;;;;;25.93;16.03;;;4.30;99.90;;;;;;4958980;28;22093;-92
2021/03/05 04:17:39;;;;;;;23.47;15.40;;;4.20;99.90;;;;;;4976165;28;20473;-94
2021/03/05 04:20:06;;;;;;;26.60;16.07;;;4.20;99.90;;;;;;4960830;28;20479;-93
2021/03/05 04:22:33;;;;;;;25.43;16.13;;;4.10;99.90;;;;;;4960180;28;20441;-93
2021/03/05 04:25:00;;;;;;;22.90;15.90;;;4.00;99.90;;;;;;4974120;28;20475;-93
2021/03/05 04:27:26;;;;;;;28.17;16.90;;;4.10;99.90;;;;;;4963529;28;20578;-94
2021/03/05 04:29:52;;;;;;;27.30;18.07;;;4.10;99.90;;;;;;4959123;28;20539;-93
2021/03/05 04:32:17;;;;;;;28.70;16.80;;;4.00;99.90;;;;;;4958473;28;20437;-93
2021/03/05 04:34:43;;;;;;;26.23;15.80;;;3.90;99.90;;;;;;4959261;28;20196;-94
2021/03/05 04:37:09;;;;;;;23.93;15.47;;;4.00;99.90;;;;;;4959959;28;20712;-94
2021/03/05 04:39:34;;;;;;;26.80;16.77;;;3.90;99.90;;;;;;4958146;28;20189;-94
2021/03/05 04:42:00;;;;;;;24.23;15.60;;;3.90;99.90;;;;;;4959808;28;20277;-93
2021/03/05 04:44:26;;;;;;;24.33;16.40;;;4.00;99.90;;;;;;4958484;28;20671;-94
2021/03/05 04:46:51;;;;;;;22.30;15.40;;;4.10;99.90;;;;;;4957700;28;20781;-96
2021/03/05 04:49:17;;;;;;;23.13;14.60;;;4.00;99.90;;;;;;4959923;28;20689;-96
2021/03/05 04:51:43;;;;;;;25.57;15.00;;;4.10;99.90;;;;;;4958630;28;20823;-95
2021/03/05 04:54:09;;;;;;;21.23;14.20;;;4.00;99.90;;;;;;4960531;28;20611;-92
2021/03/05 04:56:35;;;;;;;23.70;13.83;;;4.10;99.90;;;;;;4958127;28;20205;-94
2021/03/05 04:59:02;;;;;;;22.70;15.10;;;4.10;99.90;;;;;;4957256;28;20519;-92
2021/03/05 05:01:28;;;;;;;18.50;12.27;;;4.00;99.90;;;;;;4955185;28;20480;-93
2021/03/05 05:03:54;;;;;;;18.70;12.93;;;4.00;99.90;;;;;;4955491;28;20500;-93
2021/03/05 05:06:19;;;;;;;19.60;12.13;;;3.90;99.90;;;;;;4955897;28;20260;-92
2021/03/05 05:08:45;;;;;;;16.40;11.80;;;3.80;99.90;;;;;;4954355;28;20204;-92
2021/03/05 05:11:10;;;;;;;19.20;15.47;;;3.80;99.90;;;;;;4958124;28;20193;-93
2021/03/05 05:13:36;;;;;;;19.77;12.10;;;3.70;99.90;;;;;;4957775;28;20193;-92
2021/03/05 05:16:02;;;;;;;16.03;11.57;;;3.60;99.90;;;;;;4954721;28;20672;-93
2021/03/05 05:18:27;;;;;;;16.90;11.07;;;3.60;99.90;;;;;;4954362;28;20243;-93
2021/03/05 05:20:53;;;;;;;17.23;11.97;;;3.50;99.90;;;;;;4956633;28;20229;-91
2021/03/05 05:23:19;;;;;;;16.90;11.23;;;3.50;99.90;;;;;;4955990;28;20725;-93
2021/03/05 05:25:51;;;;;;;16.97;10.80;;;3.40;99.90;;;;;;4950586;28;20254;-96
2021/03/05 05:28:16;;;;;;;17.57;11.60;;;3.40;99.90;;;;;;4960043;28;20193;-91
2021/03/05 05:30:45;;;;;;;16.00;10.87;;;3.50;99.90;;;;;;4957583;28;20442;-90
2021/03/05 05:33:10;;;;;;;14.77;11.07;;;3.40;99.90;;;;;;4958285;28;20209;-93
2021/03/05 05:35:41;;;;;;;15.53;10.77;;;3.40;99.90;;;;;;4958764;28;20437;-93
2021/03/05 05:38:08;;;;;;;16.33;10.70;;;3.40;99.90;;;;;;4961356;28;20182;-94
2021/03/05 05:40:36;;;;;;;17.40;12.10;;;3.30;99.90;;;;;;4959173;28;20531;-94
2021/03/05 05:43:02;;;;;;;19.67;12.47;;;3.30;99.90;;;;;;4963867;28;20580;-93
2021/03/05 05:45:28;;;;;;;18.07;11.50;;;3.40;99.90;;;;;;4971919;28;21074;-92
2021/03/05 05:47:57;;;;;;;15.30;10.90;;;3.40;99.90;;;;;;4954281;28;20460;-93
2021/03/05 05:50:23;;;;;;;16.63;10.93;;;3.30;99.90;;;;;;4960269;28;20188;-94
2021/03/05 05:52:51;;;;;;;15.30;10.93;;;3.40;99.90;;;;;;4961094;28;21135;-94
2021/03/05 05:55:18;;;;;;;18.10;11.17;;;3.50;99.90;;;;;;4960074;28;20204;-93
2021/03/05 05:57:45;;;;;;;17.07;10.97;;;3.60;99.90;;;;;;4961771;28;20445;-91
2021/03/05 06:00:11;;;;;;;22.00;12.70;;;3.60;99.90;;;;;;4958954;28;20494;-91
2021/03/05 06:02:42;;;;;;;18.40;11.83;;;3.60;99.90;;;;;;4950962;28;21509;-91
2021/03/05 06:08:26;;;;;;;20.00;11.90;;;3.70;99.90;;;;;;4973141;28;20715;-91
2021/03/05 06:16:21;;;;;;;17.47;10.13;;;3.90;99.90;;;;;;4973432;28;20448;-92
2021/03/05 06:18:46;;;;;;;15.60;10.07;;;3.90;99.90;;;;;;4949314;28;20495;-92
2021/03/05 06:21:13;;;;;;;14.70;10.03;;;3.90;99.90;;;;;;4950544;28;20477;-91
2021/03/05 06:23:59;;;;;;;16.03;9.13;;;4.00;99.90;;;;;;4957070;28;20207;-92
2021/03/05 06:26:26;;;;;;;13.60;9.50;;;4.00;99.90;;;;;;4955921;28;20517;-92
2021/03/05 06:29:05;;;;;;;12.27;8.87;;;4.00;99.90;;;;;;4958709;28;20451;-92
2021/03/05 06:31:32;;;;;;;17.43;9.70;;;4.10;99.90;;;;;;4955982;28;20460;-93
2021/03/05 06:34:21;;;;;;;15.87;10.00;;;4.00;99.90;;;;;;4938562;28;20493;-91
2021/03/05 06:37:05;;;;;;;15.47;10.17;;;4.10;99.90;;;;;;4959346;28;20583;-91
2021/03/05 06:39:36;;;;;;;13.67;9.10;;;4.10;99.90;;;;;;4961813;28;20484;-92
2021/03/05 06:42:13;;;;;;;14.90;10.90;;;4.10;99.90;;;;;;4976513;28;21133;-94
2021/03/05 06:44:43;;;;;;;13.00;9.30;;;4.10;99.90;;;;;;4958856;28;20559;-89
2021/03/05 06:47:15;;;;;;;15.33;10.83;;;4.10;99.90;;;;;;4961178;28;20540;-92
2021/03/05 06:49:46;;;;;;;15.33;8.83;;;4.00;99.90;;;;;;4957465;28;20463;-90
2021/03/05 06:52:12;;;;;;;14.77;9.80;;;4.00;99.90;;;;;;4961146;28;20464;-91
2021/03/05 06:54:41;;;;;;;15.93;12.03;;;4.00;99.90;;;;;;4974872;28;20452;-91
2021/03/05 06:57:12;;;;;;;15.43;9.90;;;4.10;99.90;;;;;;4972811;28;20980;-92
2021/03/05 06:59:46;;;;;;;13.00;8.77;;;4.00;99.90;;;;;;4970387;28;20469;-92
2021/03/05 07:02:15;;;;;;;15.03;10.30;;;4.00;99.90;;;;;;4959841;28;20522;-95
2021/03/05 07:04:49;;;;;;;14.17;10.10;;;4.10;99.90;;;;;;4961791;28;20468;-89
2021/03/05 07:07:22;;;;;;;14.40;9.57;;;4.00;99.90;;;;;;4957211;28;20467;-89
2021/03/05 07:09:52;;;;;;;14.77;9.40;;;4.00;99.90;;;;;;4956839;28;21286;-91
2021/03/05 07:12:28;;;;;;;14.80;10.10;;;4.00;99.90;;;;;;4953822;28;20428;-91
2021/03/05 07:15:39;;;;;;;14.70;9.50;;;4.00;99.90;;;;;;4950775;28;20465;-90
2021/03/05 07:18:07;;;;;;;13.33;8.87;;;4.00;99.90;;;;;;4945416;28;20455;-88
2021/03/05 07:20:33;;;;;;;15.10;9.30;;;4.00;99.90;;;;;;4949587;28;20530;-89
2021/03/05 07:23:00;;;;;;;15.90;10.40;;;4.00;99.90;;;;;;4953639;28;20451;-88
2021/03/05 07:25:29;;;;;;;15.47;9.50;;;4.00;99.90;;;;;;4951761;28;20461;-93
2021/03/05 07:27:57;;;;;;;15.37;9.80;;;4.00;99.90;;;;;;4969486;28;20994;-88
2021/03/05 07:30:25;;;;;;;14.00;10.07;;;4.00;99.90;;;;;;4949184;28;20511;-84
2021/03/05 07:32:55;;;;;;;16.50;9.77;;;4.00;99.90;;;;;;4955859;28;21129;-83
2021/03/05 07:35:32;;;;;;;12.40;8.40;;;4.00;99.90;;;;;;4957680;28;21049;-83
2021/03/05 07:38:00;;;;;;;14.47;9.60;;;4.10;99.90;;;;;;4957876;28;21313;-84
2021/03/05 07:40:27;;;;;;;14.17;9.70;;;4.20;99.90;;;;;;4954879;28;21092;-84
2021/03/05 07:42:55;;;;;;;13.73;9.60;;;4.10;99.90;;;;;;4952260;28;20455;-83
2021/03/05 07:45:21;;;;;;;13.07;8.37;;;4.20;99.90;;;;;;4966218;28;20492;-83
2021/03/05 07:47:48;;;;;;;14.10;9.30;;;4.20;99.90;;;;;;4955982;28;20451;-84
2021/03/05 07:50:22;;;;;;;14.43;9.43;;;4.20;99.90;;;;;;4955727;28;20454;-83
2021/03/05 07:52:49;;;;;;;14.17;9.60;;;4.20;99.90;;;;;;4958761;28;21026;-83
2021/03/05 07:55:15;;;;;;;14.40;8.90;;;4.20;99.90;;;;;;4969705;28;20560;-84
2021/03/05 07:57:47;;;;;;;17.27;10.50;;;4.20;99.90;;;;;;4969722;28;20445;-83
2021/03/05 08:00:15;;;;;;;14.37;9.33;;;4.20;99.90;;;;;;4949680;28;21070;-84
2021/03/05 08:02:55;;;;;;;13.33;9.40;;;4.20;99.90;;;;;;4954708;28;20182;-84
2021/03/05 08:05:39;;;;;;;15.47;9.83;;;4.40;99.90;;;;;;4952523;28;20717;-83
2021/03/05 08:08:17;;;;;;;14.20;8.97;;;4.50;99.90;;;;;;4958674;28;20449;-83
2021/03/05 08:10:54;;;;;;;14.20;8.47;;;4.50;99.90;;;;;;4952477;28;20811;-83
2021/03/05 08:13:46;;;;;;;12.83;8.37;;;4.60;99.90;;;;;;4949538;28;20449;-83
2021/03/05 08:16:33;;;;;;;19.07;11.33;;;4.50;99.90;;;;;;4974017;28;20804;-83
2021/03/05 08:19:19;;;;;;;18.00;11.30;;;4.50;99.90;;;;;;4959728;28;20438;-84
2021/03/05 08:21:51;;;;;;;15.10;8.70;;;4.50;99.90;;;;;;4940623;28;20840;-83
2021/03/05 08:24:40;;;;;;;12.87;9.13;;;4.50;99.90;;;;;;4968100;28;20446;-83
2021/03/05 08:27:30;;;;;;;13.63;8.83;;;4.60;99.90;;;;;;4955865;28;20523;-83
2021/03/05 08:30:08;;;;;;;15.27;10.03;;;4.60;99.90;;;;;;4954422;28;20445;-83
2021/03/05 08:32:34;;;;;;;14.10;10.00;;;4.70;99.90;;;;;;4951367;28;20511;-83
2021/03/05 08:35:04;;;;;;;15.50;10.13;;;4.70;99.90;;;;;;4953393;28;20455;-83
2021/03/05 08:37:35;;;;;;;15.03;10.07;;;4.80;99.90;;;;;;4974307;28;20673;-83
2021/03/05 08:40:21;;;;;;;16.47;9.47;;;4.70;99.90;;;;;;4950141;28;21073;-83
2021/03/05 08:42:55;;;;;;;13.97;9.93;;;4.80;99.90;;;;;;4953157;28;20434;-83
2021/03/05 08:45:28;;;;;;;15.73;10.90;;;4.90;99.90;;;;;;4956886;28;20901;-83
2021/03/05 08:47:57;;;;;;;20.20;11.60;;;4.90;99.90;;;;;;4956717;28;20452;-83
2021/03/05 08:50:34;;;;;;;21.60;14.40;;;5.00;99.90;;;;;;4954354;28;21478;-83
2021/03/05 08:53:06;;;;;;;25.87;13.80;;;5.10;99.90;;;;;;4954104;28;20534;-84
2021/03/05 08:55:36;;;;;;;16.20;10.33;;;5.20;99.90;;;;;;4956688;28;20459;-84
2021/03/05 08:58:03;;;;;;;15.10;10.27;;;5.20;99.90;;;;;;4952358;28;20484;-84
2021/03/05 09:00:32;;;;;;;13.50;9.13;;;5.30;99.90;;;;;;4956882;28;20487;-85
2021/03/05 09:03:12;;;;;;;15.17;9.63;;;5.20;99.90;;;;;;4958580;28;20472;-85
2021/03/05 09:05:40;;;;;;;13.40;9.63;;;5.30;99.90;;;;;;4953066;28;21142;-85
2021/03/05 09:08:07;;;;;;;15.37;9.03;;;5.50;99.90;;;;;;4955578;28;20467;-85
2021/03/05 09:10:48;;;;;;;16.17;9.83;;;5.70;99.90;;;;;;4956163;28;20485;-85
2021/03/05 09:13:31;;;;;;;12.33;8.87;;;5.90;99.90;;;;;;4955278;28;20460;-85
2021/03/05 09:15:59;;;;;;;15.50;10.43;;;5.80;99.90;;;;;;4952557;28;20507;-85
2021/03/05 09:18:36;;;;;;;16.03;10.80;;;5.80;99.90;;;;;;4956877;28;20455;-85
2021/03/05 09:21:11;;;;;;;21.83;12.10;;;5.70;99.90;;;;;;4957656;28;20485;-85
2021/03/05 09:23:47;;;;;;;16.90;9.77;;;5.50;99.90;;;;;;4951338;28;20527;-86
2021/03/05 09:26:16;;;;;;;14.80;10.00;;;5.70;99.90;;;;;;4954920;28;20463;-85
2021/03/05 09:28:44;;;;;;;14.40;9.37;;;5.80;99.90;;;;;;4957047;28;20448;-85
2021/03/05 09:31:15;;;;;;;13.40;9.87;;;6.00;99.90;;;;;;4958578;28;20444;-85
2021/03/05 09:33:45;;;;;;;15.77;9.77;;;5.90;99.90;;;;;;4954249;28;20429;-84
2021/03/05 09:36:16;;;;;;;13.20;9.20;;;5.90;99.90;;;;;;4956670;28;21191;-84
2021/03/05 09:39:07;;;;;;;13.97;8.73;;;5.70;99.90;;;;;;4958809;28;20445;-84
2021/03/05 09:41:33;;;;;;;13.33;8.80;;;5.90;99.90;;;;;;4954406;28;20485;-84
2021/03/05 09:44:07;;;;;;;13.00;8.57;;;5.80;99.90;;;;;;4954943;28;20476;-84
2021/03/05 09:46:38;;;;;;;13.70;9.43;;;5.90;99.90;;;;;;4954595;28;20228;-83
2021/03/05 09:49:20;;;;;;;12.67;8.30;;;5.80;99.90;;;;;;4951721;28;20858;-84
2021/03/05 09:51:45;;;;;;;11.90;8.20;;;5.70;99.90;;;;;;4960841;28;20453;-83
2021/03/05 09:54:11;;;;;;;12.33;8.33;;;5.30;99.90;;;;;;4953834;28;20555;-84
2021/03/05 09:56:56;;;;;;;11.60;8.43;;;5.20;99.90;;;;;;4955370;28;20260;-84
2021/03/05 09:59:22;;;;;;;11.73;8.60;;;5.30;99.90;;;;;;4938282;28;20742;-84
2021/03/05 10:01:47;;;;;;;13.57;9.17;;;5.40;99.90;;;;;;4955823;28;20496;-83
2021/03/05 10:04:13;;;;;;;13.97;8.93;;;5.50;99.90;;;;;;4955176;28;20457;-83
2021/03/05 10:06:39;;;;;;;12.40;9.20;;;5.50;99.90;;;;;;4968096;28;20316;-82
2021/03/05 10:09:10;;;;;;;13.30;9.07;;;5.60;99.90;;;;;;4949473;28;20594;-84
2021/03/05 10:11:40;;;;;;;12.43;8.33;;;5.60;99.90;;;;;;4954986;28;20796;-84
2021/03/05 10:14:26;;;;;;;12.23;8.90;;;5.60;99.90;;;;;;4958818;28;20547;-84
2021/03/05 10:16:52;;;;;;;12.20;9.07;;;5.60;99.90;;;;;;4973610;28;21111;-84
2021/03/05 10:19:22;;;;;;;13.83;9.60;;;5.60;99.90;;;;;;4952757;28;20536;-84
2021/03/05 10:21:53;;;;;;;13.47;9.10;;;5.70;99.90;;;;;;4955101;28;20562;-85
2021/03/05 10:24:29;;;;;;;13.87;10.10;;;5.70;99.90;;;;;;4955720;28;20463;-84
2021/03/05 10:27:21;;;;;;;16.37;9.13;;;5.80;99.90;;;;;;4953855;28;20803;-84
2021/03/05 10:29:47;;;;;;;16.20;9.00;;;6.00;99.90;;;;;;4968571;28;20500;-84
2021/03/05 10:32:22;;;;;;;14.53;9.27;;;6.10;99.90;;;;;;4954994;28;20449;-84
2021/03/05 10:34:50;;;;;;;13.03;9.27;;;6.20;99.90;;;;;;4951247;28;20807;-84
2021/03/05 10:37:16;;;;;;;12.30;8.23;;;6.30;99.90;;;;;;4948210;28;20457;-84
2021/03/05 10:39:43;;;;;;;12.13;9.23;;;6.30;99.90;;;;;;4952616;28;20815;-84
2021/03/05 10:42:12;;;;;;;12.70;8.17;;;6.10;99.90;;;;;;4953198;28;20513;-84
2021/03/05 10:44:38;;;;;;;14.30;9.40;;;5.80;99.90;;;;;;4956919;28;20511;-83
2021/03/05 10:47:06;;;;;;;12.17;9.03;;;5.70;99.90;;;;;;4953437;28;21061;-84
2021/03/05 10:49:32;;;;;;;14.00;9.00;;;5.80;99.90;;;;;;4950332;28;20441;-84
2021/03/05 10:51:58;;;;;;;17.40;9.40;;;6.00;99.90;;;;;;4947241;28;20456;-84
2021/03/05 10:54:24;;;;;;;17.80;11.30;;;6.10;99.90;;;;;;4950857;28;20494;-84
2021/03/05 10:56:54;;;;;;;12.80;9.27;;;6.00;99.90;;;;;;4949106;28;20261;-84
2021/03/05 10:59:20;;;;;;;15.77;9.57;;;5.70;99.90;;;;;;4948321;28;20452;-84
2021/03/05 11:01:47;;;;;;;13.20;8.20;;;5.70;99.90;;;;;;4950756;28;20885;-83
2021/03/05 11:04:16;;;;;;;12.57;9.10;;;5.90;99.90;;;;;;4948482;28;21141;-83
2021/03/05 11:06:43;;;;;;;13.80;9.33;;;6.00;99.90;;;;;;4948816;28;20487;-83
2021/03/05 11:09:12;;;;;;;14.53;9.50;;;5.90;99.90;;;;;;4953380;28;20433;-84
2021/03/05 11:11:37;;;;;;;14.00;9.30;;;6.10;99.90;;;;;;4954864;28;20808;-83
2021/03/05 11:14:03;;;;;;;12.70;8.43;;;5.90;99.90;;;;;;4950428;28;21089;-83
2021/03/05 11:16:31;;;;;;;18.10;11.53;;;5.90;99.90;;;;;;4951041;28;20194;-83
2021/03/05 11:19:03;;;;;;;11.37;9.20;;;5.90;99.90;;;;;;4952600;28;20222;-83
2021/03/05 11:21:32;;;;;;;13.90;9.30;;;5.90;99.90;;;;;;4956336;28;20584;-83
2021/03/05 11:23:58;;;;;;;13.90;9.77;;;5.90;99.90;;;;;;4954478;28;20457;-83
2021/03/05 11:26:25;;;;;;;12.27;8.30;;;5.90;99.90;;;;;;4954690;28;20441;-83
2021/03/05 11:28:52;;;;;;;11.63;9.03;;;6.00;99.90;;;;;;4958132;28;21603;-84
2021/03/05 11:31:18;;;;;;;15.73;10.17;;;6.10;99.90;;;;;;4960366;28;20457;-83
2021/03/05 11:33:44;;;;;;;13.93;9.07;;;6.00;99.90;;;;;;4957342;28;20483;-86
2021/03/05 11:36:11;;;;;;;13.23;9.07;;;5.90;99.90;;;;;;4955091;28;22040;-86
2021/03/05 11:38:41;;;;;;;12.90;9.83;;;5.90;99.90;;;;;;4959980;28;20786;-83
2021/03/05 11:41:07;;;;;;;13.27;8.90;;;5.90;99.90;;;;;;4956454;28;20524;-86
2021/03/05 11:43:38;;;;;;;11.87;8.63;;;5.70;99.90;;;;;;4951819;28;20457;-86
2021/03/05 11:46:04;;;;;;;13.43;8.90;;;5.60;99.90;;;;;;4953557;28;20523;-86
2021/03/05 11:48:29;;;;;;;14.67;9.20;;;5.70;99.90;;;;;;4956290;28;20520;-86
2021/03/05 11:50:55;;;;;;;16.10;9.57;;;5.70;99.90;;;;;;4954517;28;20296;-86
2021/03/05 11:53:21;;;;;;;15.73;9.07;;;5.70;99.90;;;;;;4962166;28;20651;-86
2021/03/05 11:55:46;;;;;;;13.73;9.07;;;5.70;99.90;;;;;;4952160;28;20231;-86
2021/03/05 11:58:12;;;;;;;14.73;9.20;;;5.60;99.90;;;;;;4957933;28;21315;-86
2021/03/05 12:00:38;;;;;;;13.47;8.57;;;5.60;99.90;;;;;;4951182;28;20245;-85
2021/03/05 12:03:04;;;;;;;14.23;9.80;;;5.60;99.90;;;;;;4952104;28;20704;-85
2021/03/05 12:05:30;;;;;;;14.50;9.40;;;5.50;99.90;;;;;;4956246;28;20559;-86
2021/03/05 12:07:56;;;;;;;15.77;11.07;;;5.50;99.90;;;;;;4957151;28;20452;-86
2021/03/05 12:10:22;;;;;;;14.97;10.60;;;5.60;99.90;;;;;;4955435;28;20193;-86
2021/03/05 12:12:47;;;;;;;15.70;10.50;;;5.70;99.90;;;;;;4975823;28;20185;-86
2021/03/05 12:15:14;;;;;;;16.00;11.47;;;5.70;99.90;;;;;;4954934;28;20807;-86
2021/03/05 12:17:39;;;;;;;15.90;9.77;;;5.90;99.90;;;;;;4958237;28;20578;-86
2021/03/05 12:20:06;;;;;;;14.97;9.20;;;6.10;99.90;;;;;;4950991;28;20480;-86
2021/03/05 12:22:32;;;;;;;13.63;7.93;;;6.10;99.90;;;;;;4954362;28;20187;-85
2021/03/05 12:24:59;;;;;;;13.27;8.37;;;6.20;99.90;;;;;;4953106;28;21117;-86
2021/03/05 12:27:25;;;;;;;11.83;8.90;;;6.10;99.90;;;;;;4956530;28;20321;-86
2021/03/05 12:29:51;;;;;;;13.30;8.77;;;6.20;99.90;;;;;;4954306;28;20867;-86
2021/03/05 12:32:17;;;;;;;13.67;9.23;;;6.20;99.90;;;;;;4956311;28;20198;-86
2021/03/05 12:34:43;;;;;;;13.87;8.93;;;6.00;99.90;;;;;;4954253;28;20237;-86
2021/03/05 12:37:09;;;;;;;14.60;9.63;;;6.00;99.90;;;;;;4954744;28;20457;-85
2021/03/05 12:39:34;;;;;;;18.00;8.90;;;5.80;99.90;;;;;;4958497;28;20205;-84
2021/03/05 12:42:01;;;;;;;12.67;8.43;;;5.90;99.90;;;;;;4951692;28;20237;-83
2021/03/05 12:44:26;;;;;;;13.53;8.40;;;6.00;99.90;;;;;;4960356;28;20217;-82
2021/03/05 12:46:52;;;;;;;12.23;8.30;;;6.10;99.90;;;;;;4951167;28;20632;-83
2021/03/05 12:49:18;;;;;;;13.70;8.63;;;6.10;99.90;;;;;;4950468;28;20642;-83
2021/03/05 12:51:43;;;;;;;14.30;9.93;;;6.00;99.90;;;;;;4952175;28;20186;-84
2021/03/05 12:54:09;;;;;;;13.57;9.47;;;6.00;99.90;;;;;;4950949;28;20265;-85
2021/03/05 12:56:35;;;;;;;9.80;7.33;;;6.10;99.90;;;;;;4950764;28;20548;-83
2021/03/05 12:59:01;;;;;;;12.87;9.00;;;6.20;99.90;;;;;;4971398;28;20695;-82
2021/03/05 13:01:27;;;;;;;14.40;8.67;;;6.30;99.90;;;;;;4968369;28;20481;-83
2021/03/05 13:03:52;;;;;;;13.07;8.00;;;6.30;99.90;;;;;;4953266;28;20186;-83